createdAt,value
2019-06-20T00:01:13.426Z,22.50
2019-06-20T00:03:40.801Z,22.50
2019-06-20T00:06:08.159Z,22.50
2019-06-20T00:08:35.518Z,22.50
2019-06-20T00:11:03.375Z,22.50
2019-06-20T00:13:30.722Z,22.60
2019-06-20T00:15:58.164Z,22.70
2019-06-20T00:18:25.526Z,22.90
2019-06-20T00:20:52.899Z,22.90
2019-06-20T00:23:20.291Z,23.00
2019-06-20T00:25:47.708Z,22.90
2019-06-20T00:28:15.038Z,22.90
2019-06-20T00:30:42.441Z,23.00
2019-06-20T00:33:10.166Z,22.90
2019-06-20T00:35:37.536Z,22.80
2019-06-20T00:38:04.942Z,22.70
2019-06-20T00:40:32.285Z,22.90
2019-06-20T00:43:15.912Z,22.80
2019-06-20T00:45:29.491Z,22.90
2019-06-20T00:47:57.278Z,22.80
2019-06-20T00:50:24.803Z,22.70
2019-06-20T00:52:52.212Z,22.50
2019-06-20T00:55:19.567Z,22.50
2019-06-20T00:57:47.290Z,22.40
2019-06-20T01:00:14.923Z,22.30
2019-06-20T01:02:42.375Z,22.30
2019-06-20T01:05:10.438Z,22.30
2019-06-20T01:07:38.048Z,22.30
2019-06-20T01:10:06.089Z,22.20
2019-06-20T01:12:33.408Z,22.10
2019-06-20T01:15:00.732Z,22.20
2019-06-20T01:17:28.113Z,22.10
2019-06-20T01:19:58.197Z,22.00
2019-06-20T01:22:24.653Z,21.90
2019-06-20T01:24:52.459Z,21.90
2019-06-20T01:27:20.200Z,22.00
2019-06-20T01:29:47.563Z,22.10
2019-06-20T01:32:14.872Z,21.80
2019-06-20T01:34:42.230Z,21.70
2019-06-20T01:37:09.501Z,21.60
2019-06-20T01:39:36.844Z,21.60
2019-06-20T01:42:04.203Z,21.60
2019-06-20T01:44:31.968Z,21.70
2019-06-20T01:46:59.284Z,21.60
2019-06-20T01:49:26.614Z,21.60
2019-06-20T01:51:54.101Z,21.40
2019-06-20T01:54:21.478Z,21.50
2019-06-20T01:56:48.863Z,21.60
2019-06-20T01:59:16.201Z,21.50
2019-06-20T02:01:43.553Z,21.40
2019-06-20T02:04:10.983Z,21.30
2019-06-20T02:06:38.385Z,21.30
2019-06-20T02:09:07.637Z,21.20
2019-06-20T02:11:34.956Z,21.30
2019-06-20T02:14:07.211Z,21.40
2019-06-20T02:16:31.495Z,21.40
2019-06-20T02:18:59.122Z,21.40
2019-06-20T02:21:26.500Z,21.40
2019-06-20T02:23:53.816Z,21.40
2019-06-20T02:26:21.234Z,21.30
2019-06-20T02:28:48.551Z,21.20
2019-06-20T02:31:15.902Z,21.30
2019-06-20T02:33:43.296Z,21.10
2019-06-20T02:36:11.093Z,21.10
2019-06-20T02:38:38.791Z,21.00
2019-06-20T02:41:06.199Z,21.00
2019-06-20T02:43:33.608Z,21.00
2019-06-20T02:46:00.921Z,21.10
2019-06-20T02:48:28.718Z,20.80
2019-06-20T02:50:56.128Z,20.90
2019-06-20T02:53:23.522Z,21.10
2019-06-20T02:55:50.830Z,21.10
2019-06-20T02:58:18.492Z,21.10
2019-06-20T03:00:56.213Z,21.00
2019-06-20T03:03:24.434Z,21.10
2019-06-20T03:05:53.047Z,21.10
2019-06-20T03:08:20.402Z,21.10
2019-06-20T03:10:47.773Z,21.00
2019-06-20T03:13:15.234Z,21.00
2019-06-20T03:15:42.562Z,21.00
2019-06-20T03:18:09.922Z,21.00
2019-06-20T03:20:37.196Z,21.00
2019-06-20T03:23:04.568Z,21.00
2019-06-20T03:25:31.972Z,21.10
2019-06-20T03:27:59.276Z,21.10
2019-06-20T03:30:26.828Z,21.00
2019-06-20T03:32:54.221Z,20.90
2019-06-20T03:35:21.640Z,21.00
2019-06-20T03:37:50.271Z,20.90
2019-06-20T03:40:17.824Z,20.90
2019-06-20T03:42:45.538Z,20.90
2019-06-20T03:45:13.199Z,21.00
2019-06-20T03:47:40.591Z,21.00
2019-06-20T03:50:08.723Z,21.20
2019-06-20T03:52:36.040Z,21.10
2019-06-20T03:55:04.168Z,20.90
2019-06-20T03:57:31.582Z,20.90
2019-06-20T03:59:59.084Z,20.80
2019-06-20T04:02:26.459Z,20.90
2019-06-20T04:04:53.784Z,20.90
2019-06-20T04:07:21.171Z,20.90
2019-06-20T04:09:48.506Z,21.00
2019-06-20T04:12:15.932Z,21.10
2019-06-20T04:14:43.231Z,21.10
2019-06-20T04:17:10.526Z,21.10
2019-06-20T04:19:37.827Z,21.10
2019-06-20T04:22:05.165Z,21.20
2019-06-20T04:24:32.527Z,21.20
2019-06-20T04:26:59.824Z,21.20
2019-06-20T04:29:27.129Z,21.20
2019-06-20T04:31:54.466Z,21.20
2019-06-20T04:34:21.769Z,21.00
2019-06-20T04:36:49.242Z,21.00
2019-06-20T04:39:19.504Z,21.10
2019-06-20T04:41:45.728Z,21.30
2019-06-20T04:44:12.995Z,21.10
2019-06-20T04:46:48.765Z,20.70
2019-06-20T04:49:19.517Z,20.90
2019-06-20T04:51:45.333Z,21.20
2019-06-20T04:54:12.692Z,21.20
2019-06-20T04:56:39.998Z,21.30
2019-06-20T04:59:07.422Z,21.40
2019-06-20T05:01:35.173Z,21.60
2019-06-20T05:04:02.536Z,21.70
2019-06-20T05:06:29.929Z,21.70
2019-06-20T05:08:57.312Z,21.80
2019-06-20T05:11:24.715Z,21.80
2019-06-20T05:13:52.054Z,21.90
2019-06-20T05:16:19.319Z,21.90
2019-06-20T05:18:46.679Z,21.80
2019-06-20T05:21:14.111Z,21.70
2019-06-20T05:23:41.525Z,21.60
2019-06-20T05:26:08.896Z,21.60
2019-06-20T05:28:36.215Z,21.60
2019-06-20T05:31:03.516Z,21.70
2019-06-20T05:33:30.799Z,21.80
2019-06-20T05:35:58.187Z,21.70
2019-06-20T05:38:25.525Z,21.60
2019-06-20T05:40:52.836Z,21.70
2019-06-20T05:43:20.297Z,21.80
2019-06-20T05:45:48.767Z,21.70
2019-06-20T05:48:16.469Z,21.80
2019-06-20T05:50:44.011Z,21.80
2019-06-20T05:53:11.400Z,21.70
2019-06-20T05:55:38.746Z,21.60
2019-06-20T05:58:06.175Z,21.60
2019-06-20T06:00:33.906Z,21.70
2019-06-20T06:03:01.361Z,21.90
2019-06-20T06:05:28.788Z,22.00
2019-06-20T06:07:56.115Z,22.10
2019-06-20T06:10:23.564Z,22.10
2019-06-20T06:12:50.958Z,22.10
2019-06-20T06:15:18.547Z,22.10
2019-06-20T06:17:45.954Z,22.00
2019-06-20T06:20:13.484Z,21.70
2019-06-20T06:22:44.388Z,22.10
2019-06-20T06:25:10.167Z,22.20
2019-06-20T06:27:37.619Z,22.30
2019-06-20T06:30:05.757Z,22.20
2019-06-20T06:32:40.172Z,22.20
2019-06-20T06:35:02.719Z,22.30
2019-06-20T06:37:30.018Z,22.40
2019-06-20T06:39:57.330Z,22.50
2019-06-20T06:42:24.669Z,22.50
2019-06-20T06:44:52.042Z,22.60
2019-06-20T06:47:19.524Z,22.60
2019-06-20T06:49:46.962Z,22.50
2019-06-20T06:52:14.410Z,22.30
2019-06-20T06:54:41.949Z,22.10
2019-06-20T06:57:09.393Z,22.10
2019-06-20T06:59:36.800Z,22.10
2019-06-20T07:02:04.124Z,22.30
2019-06-20T07:04:31.515Z,22.40
2019-06-20T07:06:58.895Z,22.40
2019-06-20T07:09:26.229Z,22.40
2019-06-20T07:11:53.586Z,22.30
2019-06-20T07:14:20.996Z,22.60
2019-06-20T07:16:59.756Z,22.60
2019-06-20T07:19:18.133Z,22.70
2019-06-20T07:21:45.582Z,22.90
2019-06-20T07:24:13.278Z,23.00
2019-06-20T07:26:40.683Z,23.10
2019-06-20T07:29:08.219Z,22.80
2019-06-20T07:31:35.705Z,22.70
2019-06-20T07:34:03.287Z,22.80
2019-06-20T07:36:30.966Z,22.90
2019-06-20T07:38:58.435Z,23.10
2019-06-20T07:41:25.885Z,23.50
2019-06-20T07:43:53.454Z,23.80
2019-06-20T07:46:21.022Z,23.80
2019-06-20T07:48:48.520Z,23.90
2019-06-20T07:51:15.950Z,24.20
2019-06-20T07:53:43.324Z,24.40
2019-06-20T07:56:11.170Z,24.60
2019-06-20T07:58:38.599Z,24.80
2019-06-20T08:01:06.330Z,25.00
2019-06-20T08:03:33.776Z,25.00
2019-06-20T08:06:01.277Z,25.00
2019-06-20T08:08:28.963Z,25.10
2019-06-20T08:10:57.256Z,25.30
2019-06-20T08:13:24.744Z,25.30
2019-06-20T08:15:52.203Z,25.50
2019-06-20T08:18:19.669Z,25.40
2019-06-20T08:20:47.064Z,25.00
2019-06-20T08:23:14.399Z,24.80
2019-06-20T08:25:41.782Z,24.80
2019-06-20T08:28:09.269Z,24.90
2019-06-20T08:30:36.657Z,25.10
2019-06-20T08:33:09.895Z,25.00
2019-06-20T08:35:33.525Z,24.70
2019-06-20T08:38:01.363Z,24.40
2019-06-20T08:40:32.968Z,24.70
2019-06-20T08:43:01.950Z,24.50
2019-06-20T08:45:31.685Z,24.40
2019-06-20T08:48:00.094Z,24.40
2019-06-20T08:50:28.058Z,24.70
2019-06-20T08:52:56.626Z,24.60
2019-06-20T08:55:25.296Z,24.90
2019-06-20T08:57:52.779Z,25.20
2019-06-20T09:00:21.770Z,25.20
2019-06-20T09:02:49.572Z,25.30
2019-06-20T09:05:17.889Z,25.40
2019-06-20T09:07:45.323Z,25.30
2019-06-20T09:10:14.598Z,25.10
2019-06-20T09:12:41.947Z,25.10
2019-06-20T09:15:09.884Z,25.30
2019-06-20T09:17:37.412Z,25.20
2019-06-20T09:20:05.586Z,25.30
2019-06-20T09:22:33.016Z,25.10
2019-06-20T09:25:00.838Z,24.80
2019-06-20T09:27:28.268Z,25.20
2019-06-20T09:29:56.261Z,25.50
2019-06-20T09:32:23.807Z,25.80
2019-06-20T09:34:52.727Z,26.20
2019-06-20T09:37:20.504Z,26.30
2019-06-20T09:39:47.957Z,26.40
2019-06-20T09:42:15.769Z,25.90
2019-06-20T09:44:43.499Z,25.70
2019-06-20T09:47:10.913Z,25.60
2019-06-20T09:49:38.410Z,25.20
2019-06-20T09:52:05.839Z,25.30
2019-06-20T09:54:33.297Z,25.30
2019-06-20T09:57:00.925Z,25.70
2019-06-20T09:59:28.460Z,26.00
2019-06-20T10:01:58.550Z,26.20
2019-06-20T10:04:25.561Z,26.10
2019-06-20T10:06:54.424Z,26.30
2019-06-20T10:09:21.966Z,26.10
2019-06-20T10:11:50.124Z,25.80
2019-06-20T10:14:18.087Z,25.80
2019-06-20T10:16:50.317Z,25.90
2019-06-20T10:19:15.435Z,25.80
2019-06-20T10:21:42.979Z,25.90
2019-06-20T10:24:10.487Z,26.20
2019-06-20T10:26:38.045Z,26.60
2019-06-20T10:29:05.447Z,26.80
2019-06-20T10:31:33.302Z,27.20
2019-06-20T10:34:00.770Z,27.20
2019-06-20T10:36:28.281Z,27.20
2019-06-20T10:38:56.853Z,27.30
2019-06-20T10:41:24.424Z,27.30
2019-06-20T10:43:51.882Z,27.10
2019-06-20T10:46:19.671Z,27.20
2019-06-20T10:48:48.009Z,27.20
2019-06-20T10:51:33.186Z,27.30
2019-06-20T10:54:00.974Z,27.50
2019-06-20T10:56:29.579Z,27.40
2019-06-20T10:58:57.140Z,27.50
2019-06-20T11:01:24.729Z,27.60
2019-06-20T11:03:52.234Z,27.40
2019-06-20T11:06:19.670Z,27.40
2019-06-20T11:08:47.291Z,27.10
2019-06-20T11:11:14.786Z,27.10
2019-06-20T11:13:42.235Z,27.20
2019-06-20T11:16:09.665Z,27.60
2019-06-20T11:18:38.377Z,27.90
2019-06-20T11:21:06.481Z,27.90
2019-06-20T11:23:33.946Z,27.90
2019-06-20T11:26:01.387Z,27.70
2019-06-20T11:28:28.777Z,27.90
2019-06-20T11:31:00.414Z,28.10
2019-06-20T11:33:26.262Z,28.40
2019-06-20T11:35:54.076Z,28.90
2019-06-20T11:38:21.504Z,28.80
2019-06-20T11:40:49.204Z,28.60
2019-06-20T11:43:16.632Z,28.80
2019-06-20T11:45:44.070Z,29.20
2019-06-20T11:48:11.470Z,29.40
2019-06-20T11:50:40.001Z,29.70
2019-06-20T11:53:07.514Z,29.70
2019-06-20T11:55:34.899Z,29.40
2019-06-20T11:58:02.243Z,29.00
2019-06-20T12:00:30.047Z,28.30
2019-06-20T12:02:57.470Z,28.60
2019-06-20T12:05:25.310Z,28.60
2019-06-20T12:07:52.945Z,29.10
2019-06-20T12:10:21.508Z,29.20
2019-06-20T12:12:49.310Z,28.90
2019-06-20T12:15:17.330Z,28.90
2019-06-20T12:17:45.394Z,28.90
2019-06-20T12:20:14.952Z,28.90
2019-06-20T12:22:43.240Z,28.50
2019-06-20T12:25:12.298Z,28.70
2019-06-20T12:27:40.813Z,29.40
2019-06-20T12:30:11.270Z,30.50
2019-06-20T12:32:39.130Z,31.90
2019-06-20T12:35:08.165Z,32.50
2019-06-20T12:37:35.821Z,32.20
2019-06-20T12:40:03.618Z,31.10
2019-06-20T12:42:31.053Z,30.00
2019-06-20T12:44:58.730Z,29.00
2019-06-20T12:47:26.195Z,28.30
2019-06-20T12:49:53.552Z,27.10
2019-06-20T12:52:21.145Z,26.60
2019-06-20T12:54:49.181Z,26.10
2019-06-20T12:57:16.706Z,25.90
2019-06-20T12:59:44.581Z,25.60
2019-06-20T13:02:12.407Z,25.60
2019-06-20T13:04:39.986Z,25.60
2019-06-20T13:07:07.432Z,25.60
2019-06-20T13:09:34.799Z,25.70
2019-06-20T13:12:02.254Z,25.60
2019-06-20T13:14:29.827Z,25.80
2019-06-20T13:16:57.225Z,25.30
2019-06-20T13:19:24.603Z,25.00
2019-06-20T13:21:52.147Z,25.00
2019-06-20T13:24:19.673Z,25.10
2019-06-20T13:26:48.904Z,25.20
2019-06-20T13:29:16.298Z,25.10
2019-06-20T13:31:59.333Z,24.80
2019-06-20T13:34:13.406Z,24.70
2019-06-20T13:36:41.288Z,24.50
2019-06-20T13:39:10.104Z,24.50
2019-06-20T13:41:39.405Z,24.20
2019-06-20T13:44:06.652Z,24.10
2019-06-20T13:46:34.405Z,24.10
2019-06-20T13:49:02.062Z,24.30
2019-06-20T13:51:29.408Z,24.10
2019-06-20T13:53:56.866Z,24.10
2019-06-20T13:56:24.421Z,24.00
2019-06-20T13:58:51.968Z,23.80
2019-06-20T14:01:19.559Z,23.60
2019-06-20T14:03:48.366Z,23.50
2019-06-20T14:06:16.486Z,23.60
2019-06-20T14:08:44.804Z,23.70
2019-06-20T14:11:13.111Z,23.80
2019-06-20T14:13:41.618Z,23.80
2019-06-20T14:16:10.498Z,23.50
2019-06-20T14:18:37.943Z,23.40
2019-06-20T14:21:05.518Z,23.40
2019-06-20T14:23:33.234Z,23.50
2019-06-20T14:26:01.093Z,23.90
2019-06-20T14:28:28.651Z,24.00
2019-06-20T14:30:57.839Z,24.10
2019-06-20T14:33:25.511Z,24.70
2019-06-20T14:35:54.724Z,25.20
2019-06-20T14:38:22.630Z,25.20
2019-06-20T14:40:50.037Z,24.90
2019-06-20T14:43:17.501Z,24.90
2019-06-20T14:45:46.751Z,25.10
2019-06-20T14:48:14.459Z,25.70
2019-06-20T14:50:43.830Z,26.20
2019-06-20T14:53:12.179Z,26.70
2019-06-20T14:55:39.552Z,27.00
2019-06-20T14:58:06.979Z,28.00
2019-06-20T15:00:34.717Z,28.40
2019-06-20T15:03:02.264Z,29.20
2019-06-20T15:05:30.011Z,29.60
2019-06-20T15:07:57.574Z,29.40
2019-06-20T15:10:25.677Z,29.20
2019-06-20T15:12:53.777Z,28.60
2019-06-20T15:15:22.449Z,27.60
2019-06-20T15:17:53.702Z,27.40
2019-06-20T15:20:20.480Z,27.90
2019-06-20T15:22:49.294Z,30.30
2019-06-20T15:25:17.894Z,33.70
2019-06-20T15:27:47.288Z,36.20
2019-06-20T15:30:15.865Z,37.80
2019-06-20T15:32:55.739Z,39.30
2019-06-20T15:35:13.647Z,40.20
2019-06-20T15:37:41.176Z,40.90
2019-06-20T15:40:10.108Z,40.40
2019-06-20T15:42:37.558Z,38.50
2019-06-20T15:45:06.530Z,37.10
2019-06-20T15:47:34.744Z,35.80
2019-06-20T15:50:02.524Z,34.50
2019-06-20T15:52:30.271Z,32.30
2019-06-20T15:54:57.743Z,31.30
2019-06-20T15:57:25.570Z,30.30
2019-06-20T15:59:52.978Z,29.40
2019-06-20T16:02:21.383Z,29.20
2019-06-20T16:04:49.334Z,28.90
2019-06-20T16:07:17.445Z,28.40
2019-06-20T16:09:45.771Z,28.20
2019-06-20T16:12:14.066Z,28.10
2019-06-20T16:14:42.110Z,27.90
2019-06-20T16:17:10.487Z,27.50
2019-06-20T16:19:38.891Z,27.20
2019-06-20T16:22:06.837Z,26.90
2019-06-20T16:24:34.256Z,27.00
2019-06-20T16:27:01.708Z,27.50
2019-06-20T16:29:29.588Z,27.60
2019-06-20T16:31:56.964Z,27.40
2019-06-20T16:34:24.497Z,27.30
2019-06-20T16:36:52.076Z,27.20
2019-06-20T16:39:19.504Z,26.90
2019-06-20T16:41:46.922Z,26.90
2019-06-20T16:44:14.389Z,26.70
2019-06-20T16:46:41.935Z,26.70
2019-06-20T16:49:09.356Z,26.80
2019-06-20T16:51:36.776Z,26.90
2019-06-20T16:54:04.280Z,26.90
2019-06-20T16:56:31.693Z,26.70
2019-06-20T16:58:59.595Z,26.80
2019-06-20T17:01:27.287Z,26.80
2019-06-20T17:03:54.771Z,26.50
2019-06-20T17:06:22.259Z,26.40
2019-06-20T17:08:49.701Z,26.30
2019-06-20T17:11:17.190Z,26.30
2019-06-20T17:13:44.788Z,26.40
2019-06-20T17:16:12.372Z,26.20
2019-06-20T17:18:40.370Z,26.20
2019-06-20T17:21:07.984Z,25.90
2019-06-20T17:23:35.425Z,26.00
2019-06-20T17:26:03.177Z,26.10
2019-06-20T17:28:30.898Z,26.30
2019-06-20T17:30:58.490Z,26.40
2019-06-20T17:33:25.995Z,26.40
2019-06-20T17:35:53.755Z,26.40
2019-06-20T17:38:24.803Z,26.10
2019-06-20T17:40:52.283Z,26.00
2019-06-20T17:43:19.809Z,25.70
2019-06-20T17:45:47.362Z,25.70
2019-06-20T17:48:15.171Z,25.50
2019-06-20T17:50:42.794Z,25.50
2019-06-20T17:53:10.473Z,25.40
2019-06-20T17:55:37.922Z,25.20
2019-06-20T17:58:05.414Z,25.10
2019-06-20T18:00:33.211Z,25.20
2019-06-20T18:03:00.682Z,25.30
2019-06-20T18:05:28.168Z,25.30
2019-06-20T18:07:55.527Z,25.20
2019-06-20T18:10:24.036Z,25.20
2019-06-20T18:12:51.651Z,25.10
2019-06-20T18:15:19.322Z,25.20
2019-06-20T18:17:47.179Z,25.10
2019-06-20T18:20:16.269Z,25.10
2019-06-20T18:22:43.943Z,25.20
2019-06-20T18:25:11.704Z,25.20
2019-06-20T18:27:39.533Z,25.10
2019-06-20T18:30:08.008Z,25.10
2019-06-20T18:32:35.839Z,25.10
2019-06-20T18:35:04.268Z,25.00
2019-06-20T18:37:32.003Z,25.00
2019-06-20T18:39:59.613Z,25.00
2019-06-20T18:42:27.090Z,24.70
2019-06-20T18:44:54.537Z,24.60
2019-06-20T18:47:22.136Z,24.40
2019-06-20T18:49:49.982Z,24.40
2019-06-20T18:52:18.129Z,24.50
2019-06-20T18:54:45.702Z,24.40
2019-06-20T18:57:13.127Z,24.30
2019-06-20T18:59:40.683Z,24.10
2019-06-20T19:02:08.496Z,24.20
2019-06-20T19:04:46.204Z,24.00
2019-06-20T19:07:05.655Z,23.90
2019-06-20T19:09:33.125Z,24.00
2019-06-20T19:12:01.009Z,23.90
2019-06-20T19:14:28.979Z,23.90
2019-06-20T19:16:56.476Z,23.60
2019-06-20T19:19:24.006Z,23.10
2019-06-20T19:23:55.331Z,21.80
2019-06-20T19:26:21.990Z,21.20
2019-06-20T19:28:49.488Z,20.60
2019-06-20T19:31:17.269Z,20.10
2019-06-20T19:33:44.934Z,19.60
2019-06-20T19:36:12.814Z,19.40
2019-06-20T19:38:40.252Z,19.50
2019-06-20T19:41:07.813Z,19.20
2019-06-20T19:43:35.386Z,19.20
2019-06-20T19:46:03.149Z,19.30
2019-06-20T19:48:30.826Z,19.30
2019-06-20T19:50:58.333Z,19.10
2019-06-20T19:53:26.158Z,19.20
2019-06-20T19:55:53.726Z,19.10
2019-06-20T19:58:21.347Z,19.00
2019-06-20T20:00:50.199Z,18.90
2019-06-20T20:03:18.470Z,18.80
2019-06-20T20:05:46.551Z,18.80
2019-06-20T20:08:14.215Z,18.80
2019-06-20T20:10:43.880Z,18.90
2019-06-20T20:13:15.331Z,19.00
2019-06-20T20:15:43.138Z,19.00
2019-06-20T20:18:10.674Z,18.80
2019-06-20T20:20:38.220Z,18.80
2019-06-20T20:23:05.753Z,18.70
2019-06-20T20:25:33.260Z,18.70
2019-06-20T20:28:02.226Z,18.70
2019-06-20T20:30:30.068Z,18.70
2019-06-20T20:33:01.890Z,18.70
2019-06-20T20:35:35.321Z,18.70
2019-06-20T20:37:57.642Z,18.60
2019-06-20T20:40:25.912Z,18.60
2019-06-20T20:42:53.368Z,18.70
2019-06-20T20:45:22.088Z,18.60
2019-06-20T20:47:49.581Z,18.70
2019-06-20T20:50:18.483Z,18.60
2019-06-20T20:52:45.958Z,18.60
2019-06-20T20:55:14.157Z,18.60
2019-06-20T20:57:42.200Z,18.50
2019-06-20T21:00:12.459Z,18.50
2019-06-20T21:02:40.045Z,18.50
2019-06-20T21:05:07.790Z,18.40
2019-06-20T21:07:35.306Z,18.40
2019-06-20T21:10:03.415Z,18.40
2019-06-20T21:12:30.841Z,18.40
2019-06-20T21:14:58.341Z,18.30
2019-06-20T21:17:25.850Z,18.30
2019-06-20T21:19:53.603Z,18.40
2019-06-20T21:22:21.004Z,18.40
2019-06-20T21:24:50.518Z,18.40
2019-06-20T21:27:17.881Z,18.50
2019-06-20T21:29:45.324Z,18.50
2019-06-20T21:32:12.823Z,18.60
2019-06-20T21:34:40.334Z,18.70
2019-06-20T21:37:07.782Z,18.70
2019-06-20T21:39:38.641Z,18.70
2019-06-20T21:42:04.603Z,18.70
2019-06-20T21:44:32.034Z,18.60
2019-06-20T21:46:59.873Z,18.60
2019-06-20T21:49:27.737Z,18.60
2019-06-20T21:51:55.247Z,18.70
2019-06-20T21:54:22.677Z,18.70
2019-06-20T21:56:52.638Z,18.70
2019-06-20T21:59:20.124Z,18.70
2019-06-20T22:01:48.487Z,18.80
2019-06-20T22:04:16.101Z,18.70
2019-06-20T22:06:44.066Z,18.70
2019-06-20T22:09:11.568Z,18.70
2019-06-20T22:11:39.001Z,18.80
2019-06-20T22:14:06.386Z,19.00
2019-06-20T22:16:33.786Z,18.80
2019-06-20T22:19:01.226Z,18.70
2019-06-20T22:21:28.695Z,18.60
2019-06-20T22:23:56.092Z,18.70
2019-06-20T22:26:23.455Z,18.70
2019-06-20T22:28:50.910Z,18.70
2019-06-20T22:31:18.258Z,18.50
2019-06-20T22:33:45.702Z,18.50
2019-06-20T22:36:13.044Z,18.60
2019-06-20T22:38:40.536Z,18.50
2019-06-20T22:41:07.960Z,18.40
2019-06-20T22:43:35.300Z,18.30
2019-06-20T22:46:02.711Z,18.50
2019-06-20T22:48:30.022Z,18.60
2019-06-20T22:50:57.402Z,18.40
2019-06-20T22:53:25.198Z,18.30
2019-06-20T22:55:52.539Z,18.30
2019-06-20T22:58:19.882Z,18.20
2019-06-20T23:00:47.229Z,18.30
2019-06-20T23:03:14.625Z,18.30
2019-06-20T23:05:41.906Z,18.10
2019-06-20T23:08:09.266Z,18.10
2019-06-20T23:10:36.706Z,18.10
2019-06-20T23:13:04.232Z,18.10
2019-06-20T23:15:31.593Z,18.00
2019-06-20T23:17:59.018Z,18.00
2019-06-20T23:20:26.806Z,18.00
2019-06-20T23:22:54.159Z,18.00
2019-06-20T23:25:21.496Z,18.00
2019-06-20T23:27:48.893Z,18.10
2019-06-20T23:30:17.299Z,18.00
2019-06-20T23:32:44.596Z,18.00
2019-06-20T23:35:12.086Z,17.90
2019-06-20T23:37:39.421Z,18.00
2019-06-20T23:40:07.713Z,18.00
2019-06-20T23:42:35.140Z,18.00
2019-06-20T23:45:02.509Z,18.00
2019-06-20T23:47:29.890Z,18.00
2019-06-20T23:49:58.533Z,17.90
2019-06-20T23:52:27.955Z,17.90
2019-06-20T23:54:55.378Z,17.90
2019-06-20T23:57:22.804Z,17.90
2019-06-20T23:59:50.147Z,18.00
